Time;durP1;ratioP1;P1;durP2;ratioP2;P2;SDS_P1;SDS_P2;PMS_P1;PMS_P2;Temp;Humidity;BMP_temperature;BMP_pressure;BME280_temperature;BME280_humidity;BME280_pressure;Samples;Min_cycle;Max_cycle;Signal;HPM_P1;HPM_P2
2021/03/08 00:00:38;;;;;;;143.23;68.20;;;51.90;1382.40;;;;;;5020765;28;20033;-76
2021/03/08 00:03:06;;;;;;;188.97;84.87;;;51.80;1459.20;;;;;;5024639;28;20100;-75
2021/03/08 00:05:32;;;;;;;243.63;110.73;;;51.90;1408.00;;;;;;5020749;28;20054;-75
2021/03/08 00:07:58;;;;;;;188.80;83.60;;;51.80;1459.20;;;;;;5023084;28;20064;-75
2021/03/08 00:10:24;;;;;;;228.00;102.43;;;51.90;1433.60;;;;;;5022868;28;20026;-78
2021/03/08 00:12:50;;;;;;;208.43;93.67;;;51.80;1433.60;;;;;;5021322;28;20472;-75
2021/03/08 00:15:19;;;;;;;217.50;97.57;;;51.80;1433.60;;;;;;5022812;28;20100;-87
2021/03/08 00:17:46;;;;;;;209.30;95.43;;;51.80;1408.00;;;;;;5021908;28;20022;-75
2021/03/08 00:20:15;;;;;;;226.23;105.47;;;51.80;1433.60;;;;;;5023770;28;20026;-75
2021/03/08 00:22:42;;;;;;;223.40;106.13;;;51.80;1408.00;;;;;;5022208;28;20073;-76
2021/03/08 00:25:10;;;;;;;255.10;115.60;;;51.80;1459.20;;;;;;5025063;28;20030;-82
2021/03/08 00:27:37;;;;;;;253.40;116.67;;;51.80;1459.20;;;;;;5022187;28;20026;-75
2021/03/08 00:30:05;;;;;;;251.90;114.07;;;51.80;1459.20;;;;;;5023608;28;20025;-74
2021/03/08 00:32:31;;;;;;;258.17;118.07;;;51.80;1433.60;;;;;;5030662;28;20071;-75
2021/03/08 00:34:57;;;;;;;264.93;114.57;;;51.80;1433.60;;;;;;5030588;28;20099;-85
2021/03/08 00:37:30;;;;;;;288.87;118.30;;;51.70;1459.20;;;;;;5041828;28;20021;-75
2021/03/08 00:39:57;;;;;;;347.83;132.57;;;51.70;1408.00;;;;;;5051954;28;20029;-74
2021/03/08 00:42:22;;;;;;;298.77;120.67;;;51.70;1459.20;;;;;;5053121;28;20025;-87
2021/03/08 00:44:48;;;;;;;290.30;123.60;;;51.60;1433.60;;;;;;5052890;28;20033;-76
2021/03/08 00:47:14;;;;;;;293.47;117.27;;;51.60;1433.60;;;;;;5052950;28;20036;-75
2021/03/08 00:49:40;;;;;;;291.67;119.63;;;51.60;1536.00;;;;;;5051768;28;20028;-75
2021/03/08 00:52:06;;;;;;;294.07;120.97;;;51.50;1510.40;;;;;;5054908;28;20051;-88
2021/03/08 00:54:32;;;;;;;342.70;123.73;;;51.60;1408.00;;;;;;5057253;28;20087;-75
2021/03/08 00:56:58;;;;;;;334.23;121.23;;;51.60;1433.60;;;;;;5055349;28;20021;-75
2021/03/08 00:59:24;;;;;;;317.30;113.37;;;51.60;1408.00;;;;;;5056677;28;20139;-75
2021/03/08 01:01:49;;;;;;;215.33;86.43;;;51.50;1433.60;;;;;;5056781;28;20079;-75
2021/03/08 01:04:15;;;;;;;216.00;85.63;;;51.50;1433.60;;;;;;5055255;28;20075;-75
2021/03/08 01:06:41;;;;;;;156.87;68.63;;;51.50;1408.00;;;;;;5058544;28;20088;-75
2021/03/08 01:09:07;;;;;;;128.87;58.67;;;51.50;1408.00;;;;;;5056836;28;20058;-79
2021/03/08 01:11:37;;;;;;;202.03;85.80;;;51.50;1382.40;;;;;;5056869;28;20036;-83
2021/03/08 01:14:03;;;;;;;208.10;84.93;;;51.50;1408.00;;;;;;5056817;28;20033;-74
2021/03/08 01:16:29;;;;;;;219.03;91.73;;;51.40;1408.00;;;;;;5055036;28;20397;-74
2021/03/08 01:18:55;;;;;;;236.37;99.90;;;51.40;1484.80;;;;;;5055127;28;20025;-74
2021/03/08 01:21:20;;;;;;;236.67;100.57;;;51.20;1459.20;;;;;;5056173;28;20435;-75
2021/03/08 01:23:46;;;;;;;287.13;116.23;;;51.20;1484.80;;;;;;5056297;28;20035;-84
2021/03/08 01:26:12;;;;;;;270.67;112.40;;;26.50;1459.20;;;;;;5054895;28;20044;-74
2021/03/08 01:28:38;;;;;;;249.03;103.13;;;26.30;1484.80;;;;;;5056071;28;20039;-74
2021/03/08 01:31:04;;;;;;;265.77;109.10;;;26.30;1510.40;;;;;;5056038;28;20075;-77
2021/03/08 01:33:30;;;;;;;234.63;98.70;;;26.30;1433.60;;;;;;5054608;28;20075;-74
2021/03/08 01:35:56;;;;;;;251.40;103.47;;;26.40;1459.20;;;;;;5047437;28;20025;-74
2021/03/08 01:38:22;;;;;;;215.37;89.60;;;26.30;1382.40;;;;;;5051154;28;20029;-74
2021/03/08 01:40:48;;;;;;;179.03;80.40;;;26.40;1433.60;;;;;;5055839;28;20032;-77
2021/03/08 01:43:14;;;;;;;185.77;78.57;;;26.10;1484.80;;;;;;5054792;28;20051;-79
2021/03/08 01:45:41;;;;;;;180.13;74.90;;;26.20;1433.60;;;;;;5055946;28;20033;-82
2021/03/08 01:48:08;;;;;;;164.47;73.37;;;26.20;1459.20;;;;;;5055915;28;20076;-75
2021/03/08 01:50:40;;;;;;;167.73;76.03;;;26.20;1459.20;;;;;;5054737;28;20076;-81
2021/03/08 01:53:11;;;;;;;155.97;69.60;;;26.20;1433.60;;;;;;5051001;28;20031;-82
2021/03/08 01:55:38;;;;;;;166.00;70.33;;;26.30;1433.60;;;;;;5049351;28;20032;-77
2021/03/08 01:58:04;;;;;;;159.53;68.47;;;26.30;1408.00;;;;;;5055660;28;20066;-80
2021/03/08 02:00:31;;;;;;;154.67;66.13;;;26.20;1433.60;;;;;;5054586;28;20117;-75
2021/03/08 02:02:58;;;;;;;153.70;65.67;;;26.10;1408.00;;;;;;5055409;28;20102;-77
2021/03/08 02:05:29;;;;;;;152.63;69.47;;;26.10;1408.00;;;;;;5055344;28;20048;-86
2021/03/08 02:07:56;;;;;;;160.20;69.03;;;26.10;1382.40;;;;;;5054507;28;20028;-86
2021/03/08 02:10:23;;;;;;;173.17;73.80;;;26.20;1408.00;;;;;;5055569;28;20033;-75
2021/03/08 02:12:52;;;;;;;163.07;72.90;;;26.20;1382.40;;;;;;5055393;28;20123;-86
2021/03/08 02:15:39;;;;;;;164.73;71.13;;;26.20;1408.00;;;;;;5055324;28;20496;-85
2021/03/08 02:18:13;;;;;;;159.87;69.80;;;26.10;1459.20;;;;;;5055798;28;20033;-83
2021/03/08 02:21:18;;;;;;;158.90;69.07;;;26.10;1510.40;;;;;;5055647;28;20436;-74
2021/03/08 02:23:44;;;;;;;;;;;26.20;1459.20;;;;;;5043384;28;20116;-74
2021/03/08 02:26:19;;;;;;;145.27;67.00;;;26.30;1408.00;;;;;;5053713;28;20015;-75
2021/03/08 02:29:09;;;;;;;150.60;66.50;;;26.20;1484.80;;;;;;5053678;28;20032;-74
2021/03/08 02:31:36;;;;;;;136.23;61.63;;;26.10;1459.20;;;;;;5054954;28;20020;-74
2021/03/08 02:34:08;;;;;;;142.80;60.10;;;26.10;1459.20;;;;;;5054868;28;20431;-75
2021/03/08 02:36:45;;;;;;;141.87;63.33;;;26.10;1536.00;;;;;;5054814;28;20029;-79
2021/03/08 02:39:18;;;;;;;144.57;63.80;;;26.10;1433.60;;;;;;5053836;28;20071;-74
2021/03/08 02:41:47;;;;;;;141.13;65.93;;;26.10;1433.60;;;;;;5053717;28;20439;-78
2021/03/08 02:44:17;;;;;;;149.83;67.67;;;26.00;1433.60;;;;;;5053530;28;20029;-77
2021/03/08 02:46:46;;;;;;;185.60;81.37;;;26.00;1459.20;;;;;;5054676;28;20028;-80
2021/03/08 02:49:16;;;;;;;173.70;80.20;;;25.90;1561.60;;;;;;5042847;28;20074;-74
2021/03/08 02:51:47;;;;;;;203.20;86.43;;;25.90;1484.80;;;;;;5015516;28;20371;-74
2021/03/08 02:54:15;;;;;;;216.00;89.80;;;25.90;1510.40;;;;;;5014766;28;20368;-74
2021/03/08 02:56:44;;;;;;;204.57;90.57;;;25.90;1484.80;;;;;;5014721;28;20383;-86
2021/03/08 02:59:12;;;;;;;218.17;93.07;;;26.00;1459.20;;;;;;5014794;28;20496;-74
2021/03/08 03:01:40;;;;;;;232.70;100.50;;;26.00;1433.60;;;;;;5014733;28;20026;-74
2021/03/08 03:04:06;;;;;;;215.80;96.37;;;26.00;1510.40;;;;;;5013278;28;20079;-76
2021/03/08 03:06:35;;;;;;;240.17;103.07;;;26.00;1510.40;;;;;;5014545;28;20601;-74
2021/03/08 03:09:07;;;;;;;230.97;99.20;;;26.00;1510.40;;;;;;5013270;28;20033;-74
2021/03/08 03:11:35;;;;;;;237.67;105.47;;;26.00;1484.80;;;;;;5013197;28;20067;-75
2021/03/08 03:14:03;;;;;;;217.13;99.27;;;26.00;1510.40;;;;;;5013928;28;20388;-74
2021/03/08 03:16:30;;;;;;;194.93;90.37;;;26.00;1536.00;;;;;;5013121;28;20041;-74
2021/03/08 03:18:57;;;;;;;218.53;97.90;;;51.20;1536.00;;;;;;5013052;28;20072;-74
2021/03/08 03:21:30;;;;;;;205.13;94.20;;;26.00;1536.00;;;;;;5014565;28;20026;-74
2021/03/08 03:23:57;;;;;;;207.17;93.60;;;26.00;1587.20;;;;;;5014296;28;20030;-74
2021/03/08 03:26:24;;;;;;;242.33;105.53;;;26.00;1536.00;;;;;;5014156;28;20425;-74
2021/03/08 03:28:51;;;;;;;233.07;105.47;;;26.00;1561.60;;;;;;5014210;28;20028;-74
2021/03/08 03:31:19;;;;;;;267.73;110.93;;;25.80;1536.00;;;;;;5012877;28;20030;-72
2021/03/08 03:33:47;;;;;;;239.90;111.37;;;25.90;1484.80;;;;;;5014095;28;20484;-72
2021/03/08 03:36:13;;;;;;;237.93;109.73;;;26.00;1484.80;;;;;;5014129;28;20026;-72
2021/03/08 03:38:40;;;;;;;231.67;109.23;;;26.00;1484.80;;;;;;5014041;28;20026;-72
2021/03/08 03:41:06;;;;;;;222.33;104.50;;;26.00;1561.60;;;;;;5012739;28;20030;-72
2021/03/08 03:43:33;;;;;;;229.27;110.03;;;25.90;1561.60;;;;;;5012663;28;20124;-72
2021/03/08 03:46:03;;;;;;;209.67;103.03;;;26.00;1484.80;;;;;;5013850;28;20034;-72
2021/03/08 03:48:30;;;;;;;216.33;103.20;;;26.10;1484.80;;;;;;5012646;28;20053;-72
2021/03/08 03:50:56;;;;;;;212.27;100.53;;;26.10;1510.40;;;;;;5012586;28;20026;-72
2021/03/08 03:53:22;;;;;;;212.17;101.30;;;26.10;1510.40;;;;;;5013856;28;20033;-72
2021/03/08 03:55:48;;;;;;;228.97;113.13;;;26.00;1561.60;;;;;;5013779;28;20034;-72
2021/03/08 03:58:40;;;;;;;216.13;106.13;;;26.00;1459.20;;;;;;5013743;28;20117;-72
2021/03/08 04:01:17;;;;;;;214.23;103.50;;;25.90;1510.40;;;;;;5013512;28;20042;-72
2021/03/08 04:03:56;;;;;;;240.20;112.17;;;26.00;1587.20;;;;;;5013729;28;20113;-72
2021/03/08 04:06:29;;;;;;;220.63;104.63;;;25.80;1587.20;;;;;;5013581;28;20487;-72
2021/03/08 04:08:58;;;;;;;224.38;104.88;;;25.80;1664.00;;;;;;5013069;28;20362;-72
2021/03/08 04:11:37;;;;;;;231.20;109.47;;;25.80;1664.00;;;;;;5013916;28;20037;-72
2021/03/08 04:14:04;;;;;;;224.97;103.30;;;25.80;1638.40;;;;;;5013663;28;20030;-72
2021/03/08 04:16:31;;;;;;;189.97;92.77;;;25.80;1561.60;;;;;;5012305;28;20116;-72
2021/03/08 04:19:00;;;;;;;212.27;97.40;;;25.80;1689.60;;;;;;5012378;28;20018;-72
2021/03/08 04:21:27;;;;;;;216.67;103.47;;;25.80;1587.20;;;;;;5013532;28;20029;-72
2021/03/08 04:23:55;;;;;;;220.27;104.33;;;25.80;1561.60;;;;;;5012279;28;20029;-72
2021/03/08 04:26:22;;;;;;;247.57;111.70;;;25.90;1561.60;;;;;;5014007;28;20030;-72
2021/03/08 04:28:49;;;;;;;233.80;109.43;;;25.80;1689.60;;;;;;5017429;28;20018;-72
2021/03/08 04:31:17;;;;;;;240.27;114.00;;;25.80;1638.40;;;;;;5017476;28;20033;-72
2021/03/08 04:33:44;;;;;;;284.87;136.33;;;25.90;1587.20;;;;;;5017320;28;20553;-72
2021/03/08 04:36:11;;;;;;;269.00;125.20;;;25.90;1612.80;;;;;;5017329;28;20018;-72
2021/03/08 04:38:42;;;;;;;245.83;116.37;;;25.80;1612.80;;;;;;5016024;28;20026;-72
2021/03/08 04:41:11;;;;;;;254.00;118.43;;;25.80;1664.00;;;;;;5017279;28;20522;-72
2021/03/08 04:43:38;;;;;;;263.57;120.83;;;25.80;1612.80;;;;;;5017203;28;20560;-72
2021/03/08 04:46:05;;;;;;;233.43;114.37;;;25.90;1510.40;;;;;;5017074;28;20038;-72
2021/03/08 04:48:35;;;;;;;265.47;130.60;;;25.90;1664.00;;;;;;5017375;28;20037;-72
2021/03/08 04:51:05;;;;;;;235.40;112.87;;;25.80;1612.80;;;;;;5017094;28;20028;-72
2021/03/08 04:53:31;;;;;;;217.73;106.33;;;25.80;1536.00;;;;;;5015805;28;20026;-72
2021/03/08 04:55:58;;;;;;;199.60;99.70;;;25.90;1484.80;;;;;;5016994;28;20467;-72
2021/03/08 04:58:24;;;;;;;229.53;110.37;;;25.90;1510.40;;;;;;5016943;28;20025;-72
2021/03/08 05:00:50;;;;;;;210.00;103.33;;;26.00;1408.00;;;;;;5016889;28;20084;-72
2021/03/08 05:03:19;;;;;;;203.63;101.27;;;26.00;1484.80;;;;;;5015665;28;20029;-72
2021/03/08 05:05:46;;;;;;;196.67;95.80;;;26.00;1510.40;;;;;;5016482;28;20479;-72
2021/03/08 05:08:15;;;;;;;194.77;100.27;;;26.00;1561.60;;;;;;5017056;28;20101;-72
2021/03/08 05:10:40;;;;;;;191.87;99.40;;;25.90;1536.00;;;;;;5016725;28;20060;-72
2021/03/08 05:13:09;;;;;;;207.23;103.60;;;26.00;1536.00;;;;;;5016661;28;20057;-72
2021/03/08 05:15:36;;;;;;;197.33;98.87;;;26.00;1536.00;;;;;;5016618;28;20084;-72
2021/03/08 05:18:03;;;;;;;196.30;95.20;;;26.00;1536.00;;;;;;5016854;28;20526;-72
2021/03/08 05:20:31;;;;;;;180.03;93.80;;;26.00;1510.40;;;;;;5016495;28;20026;-72
2021/03/08 05:23:00;;;;;;;174.77;89.77;;;26.00;1561.60;;;;;;5015266;28;20072;-72
2021/03/08 05:25:26;;;;;;;187.37;94.70;;;26.00;1561.60;;;;;;5016319;28;20105;-72
2021/03/08 05:27:53;;;;;;;192.23;98.07;;;25.90;1612.80;;;;;;5016715;28;20037;-72
2021/03/08 05:30:22;;;;;;;221.97;106.67;;;25.80;1510.40;;;;;;5016367;28;20492;-72
2021/03/08 05:32:52;;;;;;;217.10;103.47;;;25.80;1536.00;;;;;;5015034;28;20026;-72
2021/03/08 05:35:21;;;;;;;202.63;102.63;;;25.90;1561.60;;;;;;5016372;28;20034;-72
2021/03/08 05:37:47;;;;;;;215.70;102.07;;;25.90;1638.40;;;;;;5015807;28;20079;-72
2021/03/08 05:40:38;;;;;;;212.97;101.43;;;25.80;1587.20;;;;;;5016269;28;20033;-72
2021/03/08 05:43:10;;;;;;;226.20;108.43;;;25.70;1689.60;;;;;;5016135;28;20356;-72
2021/03/08 05:45:45;;;;;;;228.30;107.50;;;25.80;1587.20;;;;;;5015953;28;20044;-72
2021/03/08 05:48:32;;;;;;;224.93;109.20;;;25.80;1689.60;;;;;;5016368;28;20025;-73
2021/03/08 05:51:25;;;;;;;218.97;109.90;;;25.90;1638.40;;;;;;5015963;28;20028;-72
2021/03/08 05:54:23;;;;;;;229.37;113.60;;;25.90;1689.60;;;;;;5015980;28;20030;-72
2021/03/08 05:57:13;;;;;;;233.77;119.83;;;25.80;1792.00;;;;;;5014638;28;20022;-72
2021/03/08 06:00:03;;;;;;;253.80;120.23;;;25.90;1612.80;;;;;;5039723;28;20039;-72
2021/03/08 06:02:55;;;;;;;256.00;119.47;;;26.00;1689.60;;;;;;5014553;28;20022;-72
2021/03/08 06:05:54;;;;;;;248.10;116.73;;;26.10;1689.60;;;;;;5015404;28;20049;-72
2021/03/08 06:08:37;;;;;;;238.83;116.80;;;26.10;1612.80;;;;;;5015744;28;20110;-72
2021/03/08 06:11:10;;;;;;;244.50;123.03;;;26.20;1612.80;;;;;;5015896;28;20525;-72
2021/03/08 06:13:54;;;;;;;248.87;126.07;;;26.20;1638.40;;;;;;5015524;28;20053;-72
2021/03/08 06:16:35;;;;;;;262.55;124.65;;;26.30;1715.20;;;;;;5015523;28;20509;-72
2021/03/08 06:19:04;;;;;;;290.70;127.90;;;26.30;1664.00;;;;;;5015665;28;20022;-72
2021/03/08 06:21:35;;;;;;;291.93;133.33;;;26.40;1664.00;;;;;;5015333;28;20058;-72
2021/03/08 06:24:03;;;;;;;227.93;111.57;;;26.50;1664.00;;;;;;5014094;28;20018;-72
2021/03/08 06:26:31;;;;;;;223.33;107.83;;;26.50;1689.60;;;;;;5013910;28;20034;-72
2021/03/08 06:28:58;;;;;;;223.37;106.30;;;26.50;1612.80;;;;;;5013977;28;20018;-72
2021/03/08 06:31:27;;;;;;;169.53;92.87;;;26.50;1612.80;;;;;;5013938;28;20030;-72
2021/03/08 06:33:54;;;;;;;135.23;75.33;;;51.20;1664.00;;;;;;5015156;28;20049;-72
2021/03/08 06:36:21;;;;;;;136.17;74.70;;;26.40;1689.60;;;;;;5015107;28;20030;-72
2021/03/08 06:38:48;;;;;;;132.13;72.13;;;26.50;1664.00;;;;;;5013780;28;20021;-72
2021/03/08 06:41:14;;;;;;;135.50;76.27;;;26.50;1715.20;;;;;;5014986;28;20029;-72
2021/03/08 06:43:41;;;;;;;123.03;69.80;;;26.40;1740.80;;;;;;5014941;28;20041;-72
2021/03/08 06:46:07;;;;;;;116.27;63.53;;;26.40;1766.40;;;;;;5013682;28;20080;-73
2021/03/08 06:48:34;;;;;;;110.10;60.97;;;26.40;1740.80;;;;;;5014534;28;20049;-72
2021/03/08 06:51:18;;;;;;;102.77;61.57;;;26.40;1766.40;;;;;;5014391;28;20119;-72
2021/03/08 06:53:46;;;;;;;97.53;54.95;;;51.20;1792.00;;;;;;5014877;28;20101;-72
2021/03/08 06:56:27;;;;;;;87.27;49.80;;;51.60;1766.40;;;;;;5015018;28;20489;-73
2021/03/08 06:59:13;;;;;;;83.97;50.37;;;51.70;1766.40;;;;;;5014959;28;20029;-72
2021/03/08 07:01:44;;;;;;;95.47;53.23;;;51.80;1792.00;;;;;;5013481;28;20566;-72
2021/03/08 07:04:16;;;;;;;90.20;50.27;;;51.80;1792.00;;;;;;5014347;28;20029;-73
2021/03/08 07:06:43;;;;;;;92.00;54.33;;;52.00;1792.00;;;;;;5014573;28;20517;-73
2021/03/08 07:09:15;;;;;;;93.63;54.77;;;77.00;1740.80;;;;;;5014500;28;20046;-72
2021/03/08 07:11:41;;;;;;;117.03;65.50;;;77.30;1715.20;;;;;;5014627;28;20072;-72
2021/03/08 07:14:22;;;;;;;113.73;63.03;;;77.30;1715.20;;;;;;5013183;28;20493;-73
2021/03/08 07:16:48;;;;;;;112.80;64.67;;;77.30;1715.20;;;;;;5013141;28;20037;-73
2021/03/08 07:19:13;;;;;;;111.90;65.43;;;77.30;1740.80;;;;;;5013096;28;20026;-72
2021/03/08 07:21:39;;;;;;;101.33;58.87;;;77.50;1689.60;;;;;;5020833;28;20043;-72
2021/03/08 07:24:12;;;;;;;95.67;55.30;;;77.70;1664.00;;;;;;5040617;28;20424;-72
2021/03/08 07:26:55;;;;;;;92.40;55.75;;;102.40;1638.40;;;;;;5053846;28;20029;-72
2021/03/08 07:29:23;;;;;;;97.55;57.22;;;102.80;1612.80;;;;;;5053872;28;20439;-72
2021/03/08 07:31:50;;;;;;;97.07;62.83;;;128.10;1561.60;;;;;;5053848;28;20482;-72
2021/03/08 07:34:18;;;;;;;86.45;54.90;;;153.70;1510.40;;;;;;5053725;28;20028;-72
2021/03/08 07:37:05;;;;;;;88.53;58.03;;;204.80;1305.60;;;;;;5053665;28;20420;-72
2021/03/08 07:39:31;;;;;;;95.25;61.15;;;231.20;1126.40;;;;;;5053618;28;20043;-72
2021/03/08 07:42:04;;;;;;;91.88;57.28;;;282.00;1049.60;;;;;;5052304;28;20029;-72
2021/03/08 07:44:31;;;;;;;83.93;57.63;;;307.50;998.40;;;;;;5052375;28;20079;-72
2021/03/08 07:47:15;;;;;;;81.30;53.63;;;307.90;947.20;;;;;;5053608;28;20754;-72
2021/03/08 07:49:41;;;;;;;87.88;60.03;;;333.50;921.60;;;;;;5052323;28;20036;-72
2021/03/08 07:52:17;;;;;;;77.03;54.33;;;358.90;870.40;;;;;;5053499;28;20017;-72
2021/03/08 07:55:09;;;;;;;75.88;53.78;;;384.10;819.20;;;;;;5053748;28;20033;-72
2021/03/08 07:57:37;;;;;;;66.82;43.40;;;409.80;793.60;;;;;;5052503;28;20045;-72
2021/03/08 08:00:04;;;;;;;53.65;36.92;;;384.50;819.20;;;;;;5051981;28;20033;-72
2021/03/08 08:02:30;;;;;;;48.63;33.15;;;358.90;844.80;;;;;;5053328;28;20025;-72
2021/03/08 08:04:56;;;;;;;43.30;32.00;;;358.60;870.40;;;;;;5051657;28;20119;-72
2021/03/08 08:07:23;;;;;;;48.13;33.53;;;358.40;870.40;;;;;;5053332;28;20029;-72
2021/03/08 08:09:50;;;;;;;60.55;40.35;;;333.60;896.00;;;;;;5053271;28;20031;-73
2021/03/08 08:12:28;;;;;;;44.20;32.70;;;358.40;896.00;;;;;;5053274;28;20114;-72
2021/03/08 08:14:57;;;;;;;42.67;33.22;;;358.90;870.40;;;;;;5053535;28;20025;-72
2021/03/08 08:17:23;;;;;;;96.32;50.25;;;359.30;819.20;;;;;;5053308;28;20021;-72
2021/03/08 08:19:51;;;;;;;54.90;35.38;;;359.10;819.20;;;;;;5053283;28;20025;-73
2021/03/08 08:22:22;;;;;;;87.18;52.25;;;358.90;844.80;;;;;;5051920;28;20025;-72
2021/03/08 08:24:49;;;;;;;80.72;51.40;;;359.00;844.80;;;;;;5053152;28;20021;-73
2021/03/08 08:27:19;;;;;;;84.13;56.88;;;358.60;844.80;;;;;;5053122;28;20029;-72
2021/03/08 08:29:46;;;;;;;38.47;28.17;;;333.30;921.60;;;;;;5053177;28;20022;-73
2021/03/08 08:32:13;;;;;;;38.28;27.48;;;332.80;921.60;;;;;;5053117;28;20163;-72
2021/03/08 08:34:53;;;;;;;44.50;29.10;;;332.90;921.60;;;;;;5053104;28;20021;-72
2021/03/08 08:37:22;;;;;;;51.25;34.58;;;333.50;870.40;;;;;;5051894;28;20082;-72
2021/03/08 08:39:51;;;;;;;61.60;38.53;;;358.50;870.40;;;;;;5053043;28;20021;-73
2021/03/08 08:42:28;;;;;;;107.30;56.03;;;358.40;844.80;;;;;;5051749;28;20025;-72
2021/03/08 08:44:56;;;;;;;256.63;125.35;;;333.40;896.00;;;;;;5047556;28;20366;-73
2021/03/08 08:47:23;;;;;;;50.10;30.05;;;333.20;870.40;;;;;;5036538;28;20056;-73
2021/03/08 08:49:50;;;;;;;36.50;26.10;;;333.00;896.00;;;;;;5033049;28;20025;-72
2021/03/08 08:52:44;;;;;;;178.23;85.38;;;333.00;896.00;;;;;;5033032;28;20021;-73
2021/03/08 08:55:12;;;;;;;224.80;99.47;;;333.00;947.20;;;;;;5033115;28;20021;-72
2021/03/08 08:57:38;;;;;;;192.88;83.55;;;333.20;896.00;;;;;;5033032;28;20028;-73
2021/03/08 09:00:33;;;;;;;59.65;33.53;;;333.50;896.00;;;;;;5032936;28;20014;-72
2021/03/08 09:03:01;;;;;;;51.25;28.92;;;333.40;793.60;;;;;;5032538;28;20161;-72
2021/03/08 09:05:29;;;;;;;196.38;93.80;;;333.00;870.40;;;;;;5031383;28;20049;-72
2021/03/08 09:08:29;;;;;;;81.30;44.53;;;308.00;896.00;;;;;;5032884;28;20121;-72
2021/03/08 09:10:56;;;;;;;25.70;19.55;;;307.60;896.00;;;;;;5032867;28;20028;-72
2021/03/08 09:13:23;;;;;;;28.85;18.60;;;307.90;870.40;;;;;;5034855;28;20021;-72
2021/03/08 09:15:49;;;;;;;23.73;17.92;;;332.80;870.40;;;;;;5036425;28;20033;-72
2021/03/08 09:18:15;;;;;;;32.75;20.60;;;332.80;844.80;;;;;;5036682;28;20017;-72
2021/03/08 09:20:43;;;;;;;30.08;22.30;;;333.40;844.80;;;;;;5036343;28;20073;-72
2021/03/08 09:23:23;;;;;;;28.98;16.58;;;333.50;844.80;;;;;;5035072;28;20096;-72
2021/03/08 09:25:56;;;;;;;23.50;16.08;;;358.40;819.20;;;;;;5034808;28;20033;-72
2021/03/08 09:28:22;;;;;;;20.30;14.82;;;358.80;819.20;;;;;;5036177;28;20022;-73
2021/03/08 09:30:49;;;;;;;29.02;16.80;;;359.30;793.60;;;;;;5036471;28;20029;-90
2021/03/08 09:33:17;;;;;;;24.55;17.90;;;359.00;768.00;;;;;;5047677;28;20463;-88
2021/03/08 09:35:44;;;;;;;38.92;22.90;;;333.60;819.20;;;;;;5027597;28;20036;-72
2021/03/08 09:38:23;;;;;;;31.65;20.10;;;333.20;819.20;;;;;;5026734;28;20477;-85
2021/03/08 09:40:50;;;;;;;27.77;16.63;;;332.90;870.40;;;;;;5027213;28;20096;-72
2021/03/08 09:43:30;;;;;;;27.33;19.27;;;308.00;844.80;;;;;;5026110;28;20044;-72
2021/03/08 09:46:14;;;;;;;32.20;19.27;;;307.90;896.00;;;;;;5026991;28;20026;-85
2021/03/08 09:48:43;;;;;;;26.85;17.25;;;307.70;921.60;;;;;;5026886;28;20033;-75
2021/03/08 09:51:17;;;;;;;30.27;19.67;;;307.40;921.60;;;;;;5036040;28;20068;-72
2021/03/08 09:53:48;;;;;;;38.90;21.42;;;307.30;896.00;;;;;;5032462;28;20017;-73
2021/03/08 09:56:16;;;;;;;32.33;18.40;;;282.40;921.60;;;;;;5027323;28;20073;-82
2021/03/08 09:58:42;;;;;;;42.65;21.63;;;282.30;972.80;;;;;;5025565;28;20067;-89
2021/03/08 10:01:18;;;;;;;24.85;17.02;;;282.10;947.20;;;;;;5023265;28;20025;-88
2021/03/08 10:03:45;;;;;;;29.30;16.83;;;282.10;972.80;;;;;;5026841;28;20013;-88
2021/03/08 10:06:34;;;;;;;20.42;14.95;;;282.00;947.20;;;;;;5024776;28;20056;-87
2021/03/08 10:09:17;;;;;;;22.42;15.15;;;282.20;921.60;;;;;;5026672;28;20029;-74
2021/03/08 10:11:43;;;;;;;21.70;15.40;;;282.30;947.20;;;;;;5026467;28;20021;-73
2021/03/08 10:14:28;;;;;;;21.70;15.13;;;282.30;947.20;;;;;;5058309;28;20021;-88
2021/03/08 10:17:05;;;;;;;26.67;15.85;;;282.10;947.20;;;;;;5026044;28;20462;-73
2021/03/08 10:19:32;;;;;;;25.23;16.40;;;282.20;921.60;;;;;;5032260;28;20021;-85
2021/03/08 10:21:58;;;;;;;23.23;15.95;;;282.20;947.20;;;;;;5036881;28;20489;-73
2021/03/08 10:24:39;;;;;;;27.05;15.82;;;282.30;972.80;;;;;;5030834;28;20029;-72
2021/03/08 10:27:10;;;;;;;26.83;16.27;;;282.40;947.20;;;;;;5030815;28;20030;-73
2021/03/08 10:29:38;;;;;;;31.25;18.42;;;282.50;947.20;;;;;;5036217;28;20163;-87
2021/03/08 10:32:07;;;;;;;35.85;23.70;;;282.50;921.60;;;;;;5037171;28;20029;-72
2021/03/08 10:34:33;;;;;;;27.67;16.98;;;282.40;896.00;;;;;;5026683;28;20432;-89
2021/03/08 10:37:00;;;;;;;26.73;16.85;;;282.40;896.00;;;;;;5024006;28;20509;-72
2021/03/08 10:39:28;;;;;;;25.88;18.52;;;282.40;921.60;;;;;;5023389;28;20113;-72
2021/03/08 10:41:54;;;;;;;23.15;16.35;;;282.40;921.60;;;;;;5023683;28;20021;-74
2021/03/08 10:44:21;;;;;;;42.05;22.38;;;282.50;921.60;;;;;;5021780;28;20036;-88
2021/03/08 10:46:47;;;;;;;23.73;16.75;;;282.50;921.60;;;;;;5024764;28;20101;-73
2021/03/08 10:49:13;;;;;;;29.60;16.83;;;282.40;896.00;;;;;;5036596;28;20104;-72
2021/03/08 10:51:40;;;;;;;25.67;16.60;;;282.50;972.80;;;;;;5026336;28;20021;-88
2021/03/08 10:54:17;;;;;;;22.45;15.25;;;282.50;921.60;;;;;;5026009;28;20025;-73
2021/03/08 10:56:44;;;;;;;25.67;15.93;;;307.20;998.40;;;;;;5034714;28;20061;-75
2021/03/08 10:59:29;;;;;;;31.42;19.65;;;307.20;972.80;;;;;;5033260;28;20478;-71
2021/03/08 11:02:09;;;;;;;23.25;15.60;;;307.20;947.20;;;;;;5032800;28;20053;-83
2021/03/08 11:04:34;;;;;;;22.77;15.32;;;307.20;921.60;;;;;;5029075;28;20030;-88
2021/03/08 11:07:01;;;;;;;21.08;13.40;;;307.20;947.20;;;;;;5023892;28;20072;-86
2021/03/08 11:09:29;;;;;;;28.95;18.13;;;307.40;998.40;;;;;;5035664;28;20041;-88
2021/03/08 11:11:56;;;;;;;24.98;14.40;;;307.40;947.20;;;;;;5028675;28;20033;-76
2021/03/08 11:14:22;;;;;;;22.23;15.10;;;307.40;921.60;;;;;;5028713;28;20068;-89
2021/03/08 11:16:53;;;;;;;33.42;20.50;;;307.40;972.80;;;;;;5034166;28;20490;-74
2021/03/08 11:19:26;;;;;;;27.30;15.82;;;307.50;947.20;;;;;;5035035;28;20072;-73
2021/03/08 11:22:21;;;;;;;25.85;13.38;;;307.60;972.80;;;;;;5041246;28;20033;-76
2021/03/08 11:24:49;;;;;;;21.13;15.05;;;307.50;972.80;;;;;;5045318;28;20029;-73
2021/03/08 11:27:27;;;;;;;24.58;15.75;;;307.50;972.80;;;;;;5051879;28;20458;-74
2021/03/08 11:30:00;;;;;;;19.55;14.50;;;307.60;972.80;;;;;;5040675;28;20025;-73
2021/03/08 11:32:29;;;;;;;24.83;16.00;;;307.50;972.80;;;;;;5036940;28;20033;-73
2021/03/08 11:34:55;;;;;;;34.75;20.05;;;307.70;998.40;;;;;;5031498;28;20497;-73
2021/03/08 11:37:24;;;;;;;26.65;15.52;;;307.60;972.80;;;;;;5031718;28;20030;-73
2021/03/08 11:39:52;;;;;;;22.00;15.38;;;307.80;947.20;;;;;;5031884;28;20033;-73
2021/03/08 11:42:20;;;;;;;19.55;13.93;;;307.70;947.20;;;;;;5030788;28;20029;-73
2021/03/08 11:44:47;;;;;;;26.92;14.70;;;307.70;921.60;;;;;;5031690;28;20097;-73
2021/03/08 11:47:13;;;;;;;24.75;13.13;;;307.90;921.60;;;;;;5031287;28;20033;-72
2021/03/08 11:49:41;;;;;;;20.63;13.10;;;307.90;921.60;;;;;;5032239;28;20418;-73
2021/03/08 11:52:07;;;;;;;18.98;13.40;;;307.90;896.00;;;;;;5033644;28;20378;-72
2021/03/08 11:54:34;;;;;;;20.33;13.98;;;308.00;921.60;;;;;;5033587;28;20021;-72
2021/03/08 11:57:02;;;;;;;28.92;14.00;;;308.00;921.60;;;;;;5032251;28;20025;-72
2021/03/08 11:59:28;;;;;;;24.65;14.90;;;308.00;921.60;;;;;;5032282;28;20025;-73
2021/03/08 12:01:54;;;;;;;42.60;16.42;;;308.10;921.60;;;;;;5033451;28;20543;-73
2021/03/08 12:04:20;;;;;;;33.30;14.98;;;332.80;998.40;;;;;;5033682;28;20527;-72
2021/03/08 12:06:46;;;;;;;20.45;13.90;;;332.80;947.20;;;;;;5032914;28;20570;-86
2021/03/08 12:09:12;;;;;;;22.08;14.55;;;332.80;870.40;;;;;;5043007;28;20035;-93
2021/03/08 12:11:38;;;;;;;18.98;12.93;;;332.80;947.20;;;;;;5043209;28;20528;-92
2021/03/08 12:14:04;;;;;;;23.45;13.68;;;308.10;896.00;;;;;;5038498;28;20025;-76
2021/03/08 12:16:30;;;;;;;35.85;20.13;;;308.10;870.40;;;;;;5052251;28;20025;-75